createdAt,value
2022-10-17T00:02:05.090Z,68.71
2022-10-17T00:07:01.207Z,76.45
2022-10-17T00:09:29.657Z,70.48
2022-10-17T00:11:57.903Z,69.26
2022-10-17T00:14:28.616Z,68.56
2022-10-17T00:16:56.653Z,65.69
2022-10-17T00:19:26.448Z,67.61
2022-10-17T00:21:55.270Z,69.05
2022-10-17T00:24:23.692Z,68.38
2022-10-17T00:26:52.008Z,77.06
2022-10-17T00:29:21.019Z,69.19
2022-10-17T00:31:49.409Z,78.88
2022-10-17T00:34:17.436Z,73.44
2022-10-17T00:36:47.348Z,88.51
2022-10-17T00:39:15.610Z,79.21
2022-10-17T00:41:43.621Z,71.60
2022-10-17T00:44:47.676Z,70.44
2022-10-17T00:47:18.765Z,73.16
2022-10-17T00:49:49.191Z,95.10
2022-10-17T00:52:21.716Z,97.39
2022-10-17T00:54:51.165Z,91.29
2022-10-17T00:57:19.345Z,75.86
2022-10-17T00:59:51.487Z,85.24
2022-10-17T01:02:22.361Z,83.61
2022-10-17T01:04:53.450Z,72.55
2022-10-17T01:07:23.281Z,71.30
2022-10-17T01:09:52.191Z,74.22
2022-10-17T01:12:23.543Z,72.94
2022-10-17T01:15:03.958Z,72.16
2022-10-17T01:17:37.774Z,72.70
2022-10-17T01:20:26.089Z,84.61
2022-10-17T01:23:04.875Z,77.63
2022-10-17T01:25:37.968Z,75.00
2022-10-17T01:28:17.060Z,84.78
2022-10-17T01:31:04.477Z,86.45
2022-10-17T01:33:43.464Z,83.90
2022-10-17T01:36:14.356Z,85.94
2022-10-17T01:38:47.261Z,85.84
2022-10-17T01:41:20.663Z,100.00
2022-10-17T01:43:51.211Z,89.41
2022-10-17T01:46:24.696Z,86.95
2022-10-17T01:48:54.614Z,81.12
2022-10-17T01:51:25.415Z,84.04
2022-10-17T01:53:55.732Z,90.55
2022-10-17T01:56:26.839Z,92.85
2022-10-17T01:58:59.383Z,84.83
2022-10-17T02:01:29.865Z,84.84
2022-10-17T02:04:02.436Z,83.53
2022-10-17T02:06:30.884Z,94.19
2022-10-17T02:08:59.330Z,86.11
2022-10-17T02:11:28.404Z,86.21
2022-10-17T02:16:44.811Z,85.74
2022-10-17T02:19:32.226Z,88.42
2022-10-17T02:22:11.244Z,90.49
2022-10-17T02:24:46.827Z,95.88
2022-10-17T02:27:19.066Z,89.22
2022-10-17T02:29:49.700Z,84.04
2022-10-17T02:32:23.366Z,100.00
2022-10-17T02:34:52.494Z,100.00
2022-10-17T02:37:25.180Z,96.97
2022-10-17T02:39:53.728Z,100.00
2022-10-17T02:42:22.392Z,100.00
2022-10-17T02:44:50.801Z,100.00
2022-10-17T02:47:25.246Z,99.83
2022-10-17T02:49:55.696Z,97.43
2022-10-17T02:52:28.741Z,97.45
2022-10-17T02:55:01.931Z,80.93
2022-10-17T02:57:32.896Z,85.64
2022-10-17T03:00:03.303Z,79.89
2022-10-17T03:02:40.005Z,81.52
2022-10-17T03:05:09.311Z,87.12
2022-10-17T03:07:39.000Z,89.44
2022-10-17T03:10:08.498Z,93.91
2022-10-17T03:12:36.342Z,96.08
2022-10-17T03:15:04.709Z,96.53
2022-10-17T03:17:34.697Z,100.00
2022-10-17T03:20:03.314Z,100.00
2022-10-17T03:22:32.206Z,100.00
2022-10-17T03:25:02.468Z,100.00
2022-10-17T03:27:30.793Z,100.00
2022-10-17T03:29:59.124Z,100.00
2022-10-17T03:32:27.224Z,100.00
2022-10-17T03:34:57.321Z,98.98
2022-10-17T03:37:25.787Z,100.00
2022-10-17T03:39:53.996Z,100.00
2022-10-17T03:42:22.786Z,100.00
2022-10-17T03:44:51.095Z,100.00
2022-10-17T03:47:19.313Z,95.87
2022-10-17T03:49:48.211Z,100.00
2022-10-17T03:52:18.984Z,100.00
2022-10-17T03:54:47.515Z,100.00
2022-10-17T03:57:15.693Z,100.00
2022-10-17T03:59:43.856Z,99.86
2022-10-17T04:02:16.376Z,98.67
2022-10-17T04:04:45.136Z,100.00
2022-10-17T04:07:13.271Z,100.00
2022-10-17T04:09:46.406Z,100.00
2022-10-17T04:12:19.275Z,100.00
2022-10-17T04:14:47.454Z,100.00
2022-10-17T04:17:16.575Z,100.00
2022-10-17T04:19:46.973Z,100.00
2022-10-17T04:22:20.375Z,100.00
2022-10-17T04:24:50.003Z,100.00
2022-10-17T04:27:32.455Z,100.00
2022-10-17T04:30:00.746Z,100.00
2022-10-17T04:32:29.718Z,100.00
2022-10-17T04:35:03.387Z,100.00
2022-10-17T04:37:32.143Z,97.44
2022-10-17T04:40:06.613Z,99.73
2022-10-17T04:42:36.478Z,99.21
2022-10-17T04:45:05.062Z,96.35
2022-10-17T04:47:34.326Z,99.01
2022-10-17T04:50:02.805Z,100.00
2022-10-17T04:52:34.813Z,100.00
2022-10-17T04:55:06.895Z,100.00
2022-10-17T04:57:36.116Z,100.00
2022-10-17T05:00:17.416Z,100.00
2022-10-17T05:03:01.285Z,100.00
2022-10-17T05:05:30.800Z,100.00
2022-10-17T05:07:59.077Z,99.71
2022-10-17T05:10:37.034Z,100.00
2022-10-17T05:13:06.275Z,100.00
2022-10-17T05:15:35.435Z,100.00
2022-10-17T05:18:04.729Z,100.00
2022-10-17T05:20:33.098Z,100.00
2022-10-17T05:23:02.003Z,100.00
2022-10-17T05:25:36.494Z,100.00
2022-10-17T05:28:04.728Z,100.00
2022-10-17T05:30:35.314Z,100.00
2022-10-17T05:33:06.679Z,100.00
2022-10-17T05:35:35.402Z,100.00
2022-10-17T05:38:03.476Z,100.00
2022-10-17T05:40:33.793Z,100.00
2022-10-17T05:43:03.953Z,100.00
2022-10-17T05:45:33.863Z,100.00
2022-10-17T05:48:03.439Z,100.00
2022-10-17T05:50:32.212Z,100.00
2022-10-17T05:53:06.120Z,100.00
2022-10-17T05:55:40.655Z,100.00
2022-10-17T05:58:17.606Z,100.00
2022-10-17T06:00:53.216Z,100.00
2022-10-17T06:03:22.195Z,100.00
2022-10-17T06:05:50.547Z,100.00
2022-10-17T06:08:20.589Z,100.00
2022-10-17T06:10:50.520Z,100.00
2022-10-17T06:13:21.096Z,100.00
2022-10-17T06:15:54.246Z,100.00
2022-10-17T06:18:23.777Z,100.00
2022-10-17T06:20:52.319Z,100.00
2022-10-17T06:23:23.751Z,100.00
2022-10-17T06:26:01.140Z,100.00
2022-10-17T06:28:33.281Z,100.00
2022-10-17T06:31:06.002Z,100.00
2022-10-17T06:33:34.990Z,100.00
2022-10-17T06:36:08.492Z,100.00
2022-10-17T06:38:37.455Z,100.00
2022-10-17T06:41:14.141Z,100.00
2022-10-17T06:43:46.228Z,100.00
2022-10-17T06:46:46.559Z,100.00
2022-10-17T06:49:18.416Z,100.00
2022-10-17T06:51:59.295Z,100.00
2022-10-17T06:54:42.272Z,100.00
2022-10-17T06:57:32.920Z,100.00
2022-10-17T07:00:23.847Z,100.00
2022-10-17T07:02:55.547Z,100.00
2022-10-17T07:05:25.400Z,100.00
2022-10-17T07:07:53.564Z,100.00
2022-10-17T07:10:22.054Z,100.00
2022-10-17T07:12:51.564Z,100.00
2022-10-17T07:15:20.021Z,100.00
2022-10-17T07:17:51.964Z,100.00
2022-10-17T07:20:20.950Z,98.81
2022-10-17T07:22:49.206Z,100.00
2022-10-17T07:25:19.742Z,93.96
2022-10-17T07:27:54.969Z,100.00
2022-10-17T07:30:23.986Z,100.00
2022-10-17T07:32:58.479Z,100.00
2022-10-17T07:35:26.730Z,100.00
2022-10-17T07:37:55.002Z,91.98
2022-10-17T07:40:24.079Z,89.87
2022-10-17T07:42:53.660Z,97.48
2022-10-17T07:45:23.818Z,90.07
2022-10-17T07:47:52.827Z,83.75
2022-10-17T07:50:25.583Z,87.46
2022-10-17T07:52:53.686Z,86.85
2022-10-17T07:55:23.961Z,76.50
2022-10-17T07:57:52.434Z,100.00
2022-10-17T08:00:20.893Z,84.05
2022-10-17T08:02:49.158Z,75.83
2022-10-17T08:05:17.697Z,67.21
2022-10-17T08:07:50.446Z,62.26
2022-10-17T08:10:19.394Z,74.67
2022-10-17T08:12:48.886Z,70.40
2022-10-17T08:15:18.672Z,66.04
2022-10-17T08:17:47.450Z,82.29
2022-10-17T08:20:15.654Z,78.78
2022-10-17T08:22:44.658Z,68.34
2022-10-17T08:25:14.153Z,62.44
2022-10-17T08:27:42.982Z,90.25
2022-10-17T08:30:12.088Z,66.02
2022-10-17T08:32:40.638Z,88.59
2022-10-17T08:35:09.301Z,85.51
2022-10-17T08:37:37.776Z,68.37
2022-10-17T08:40:07.281Z,71.12
2022-10-17T08:43:03.775Z,58.98
2022-10-17T08:45:35.023Z,72.74
2022-10-17T08:48:07.590Z,66.86
2022-10-17T08:50:40.563Z,70.14
2022-10-17T08:53:15.017Z,71.09
2022-10-17T08:55:46.077Z,63.82
2022-10-17T08:58:20.906Z,55.08
2022-10-17T09:00:58.149Z,70.82
2022-10-17T09:03:40.334Z,74.30
2022-10-17T09:06:19.827Z,61.94
2022-10-17T09:08:58.854Z,72.09
2022-10-17T09:11:41.995Z,56.11
2022-10-17T09:14:36.042Z,53.39
2022-10-17T09:17:20.493Z,77.27
2022-10-17T09:20:02.135Z,54.53
2022-10-17T09:22:35.408Z,61.40
2022-10-17T09:25:07.033Z,64.63
2022-10-17T09:27:37.964Z,58.99
2022-10-17T09:30:43.557Z,53.27
2022-10-17T09:33:23.237Z,56.12
2022-10-17T09:36:05.811Z,54.10
2022-10-17T09:38:39.621Z,52.04
2022-10-17T09:41:25.887Z,52.87
2022-10-17T09:44:01.791Z,50.81
2022-10-17T09:46:37.507Z,52.14
2022-10-17T09:49:10.278Z,50.07
2022-10-17T09:51:40.946Z,47.86
2022-10-17T09:54:17.145Z,49.00
2022-10-17T09:56:59.553Z,56.48
2022-10-17T09:59:37.559Z,49.63
2022-10-17T10:02:28.975Z,43.93
2022-10-17T10:05:07.494Z,52.94
2022-10-17T10:07:38.161Z,53.27
2022-10-17T10:10:31.548Z,55.78
2022-10-17T10:13:34.340Z,45.30
2022-10-17T10:16:43.617Z,43.14
2022-10-17T10:19:49.311Z,53.48
2022-10-17T10:22:24.062Z,44.57
2022-10-17T10:25:20.103Z,44.29
2022-10-17T10:27:54.930Z,45.18
2022-10-17T10:30:36.154Z,42.05
2022-10-17T10:33:16.365Z,39.42
2022-10-17T10:35:55.918Z,41.64
2022-10-17T10:38:25.574Z,39.60
2022-10-17T10:40:58.468Z,45.10
2022-10-17T10:43:38.737Z,46.31
2022-10-17T10:46:21.094Z,42.92
2022-10-17T10:54:04.704Z,40.02
2022-10-17T10:57:06.965Z,41.00
2022-10-17T10:59:41.556Z,40.78
2022-10-17T11:02:15.013Z,39.52
2022-10-17T11:04:48.696Z,44.95
2022-10-17T11:07:45.631Z,43.11
2022-10-17T11:10:19.743Z,41.48
2022-10-17T11:13:00.791Z,45.27
2022-10-17T11:15:49.964Z,43.00
2022-10-17T11:18:24.636Z,41.54
2022-10-17T11:21:00.548Z,39.66
2022-10-17T11:23:36.778Z,39.70
2022-10-17T11:26:35.064Z,40.04
2022-10-17T11:29:09.139Z,41.12
2022-10-17T11:31:41.895Z,42.92
2022-10-17T11:34:15.128Z,38.42
2022-10-17T11:36:45.817Z,39.49
2022-10-17T11:39:18.646Z,38.61
2022-10-17T11:41:55.226Z,38.42
2022-10-17T11:44:30.372Z,38.99
2022-10-17T11:47:02.052Z,36.65
2022-10-17T11:49:40.631Z,40.77
2022-10-17T11:52:44.001Z,34.00
2022-10-17T11:55:19.190Z,35.86
2022-10-17T11:58:24.951Z,37.36
2022-10-17T12:01:07.955Z,39.94
2022-10-17T12:04:01.056Z,40.68
2022-10-17T12:06:43.090Z,37.23
2022-10-17T12:09:28.705Z,34.44
2022-10-17T12:12:10.107Z,32.46
2022-10-17T12:14:45.793Z,35.06
2022-10-17T12:17:34.681Z,33.53
2022-10-17T12:20:40.944Z,31.96
2022-10-17T12:23:37.696Z,33.78
2022-10-17T12:26:10.501Z,36.29
2022-10-17T12:28:57.458Z,34.86
2022-10-17T12:31:34.114Z,35.28
2022-10-17T12:34:26.687Z,32.31
2022-10-17T12:37:06.760Z,30.88
2022-10-17T12:40:13.035Z,32.61
2022-10-17T12:43:07.052Z,30.65
2022-10-17T12:46:03.443Z,31.13
2022-10-17T13:03:48.400Z,35.41
2022-10-17T13:06:52.684Z,32.17
2022-10-17T13:10:00.386Z,34.20
2022-10-17T13:12:52.790Z,32.34
2022-10-17T13:15:44.159Z,34.21
2022-10-17T13:18:25.964Z,35.81
2022-10-17T13:21:11.460Z,32.83
2022-10-17T13:23:45.064Z,32.06
2022-10-17T13:26:21.082Z,30.35
2022-10-17T13:29:06.508Z,33.38
2022-10-17T13:31:43.878Z,33.37
2022-10-17T13:34:21.671Z,37.30
2022-10-17T13:37:01.432Z,34.70
2022-10-17T13:39:54.735Z,30.74
2022-10-17T13:42:28.636Z,33.27
2022-10-17T13:48:53.824Z,33.97
2022-10-17T13:51:24.760Z,31.84
2022-10-17T13:53:54.270Z,31.33
2022-10-17T13:56:31.818Z,30.22
2022-10-17T13:59:11.317Z,33.95
2022-10-17T14:01:43.441Z,32.65
2022-10-17T14:04:20.248Z,31.72
2022-10-17T14:06:52.209Z,28.70
2022-10-17T14:09:26.428Z,29.49
2022-10-17T14:12:29.456Z,28.54
2022-10-17T14:16:07.932Z,28.45
2022-10-17T14:18:24.880Z,26.26
2022-10-17T14:23:46.203Z,29.46
2022-10-17T14:26:21.727Z,26.33
2022-10-17T14:29:25.607Z,27.18
2022-10-17T14:32:50.354Z,25.32
2022-10-17T14:35:41.835Z,25.02
2022-10-17T14:39:01.931Z,25.72
2022-10-17T14:41:44.371Z,27.17
2022-10-17T14:44:35.430Z,26.30
2022-10-17T14:47:43.348Z,26.39
2022-10-17T14:50:59.432Z,29.76
2022-10-17T14:53:35.674Z,29.75
2022-10-17T14:56:07.332Z,30.21
2022-10-17T14:58:36.590Z,32.15
2022-10-17T15:01:05.469Z,34.28
2022-10-17T15:03:44.373Z,28.76
2022-10-17T15:06:20.203Z,27.19
2022-10-17T15:08:51.373Z,27.76
2022-10-17T15:11:37.726Z,31.53
2022-10-17T15:14:18.897Z,29.14
2022-10-17T15:16:48.961Z,29.29
2022-10-17T15:19:19.287Z,30.99
2022-10-17T15:21:48.638Z,28.73
2022-10-17T15:24:19.322Z,29.71
2022-10-17T15:26:52.199Z,30.59
2022-10-17T15:29:20.646Z,29.82
2022-10-17T15:31:55.345Z,30.61
2022-10-17T15:34:26.590Z,32.50
2022-10-17T15:36:58.037Z,31.63
2022-10-17T15:39:27.875Z,33.74
2022-10-17T15:42:06.686Z,35.93
2022-10-17T15:44:37.954Z,36.12
2022-10-17T15:47:06.574Z,37.15
2022-10-17T15:49:57.714Z,38.59
2022-10-17T15:52:28.557Z,35.15
2022-10-17T15:54:59.594Z,33.68
2022-10-17T15:57:38.686Z,33.35
2022-10-17T16:00:09.906Z,34.53
2022-10-17T16:02:44.454Z,34.26
2022-10-17T16:05:19.232Z,34.20
2022-10-17T16:07:49.173Z,34.66
2022-10-17T16:10:28.746Z,34.77
2022-10-17T16:13:04.534Z,35.03
2022-10-17T16:15:37.106Z,35.75
2022-10-17T16:18:30.019Z,36.32
2022-10-17T16:21:08.184Z,36.95
2022-10-17T16:24:01.960Z,38.13
2022-10-17T16:26:31.051Z,38.74
2022-10-17T16:29:03.141Z,39.05
2022-10-17T16:31:37.289Z,38.79
2022-10-17T16:34:09.278Z,39.49
2022-10-17T16:36:50.538Z,39.49
2022-10-17T16:39:39.223Z,39.68
2022-10-17T16:42:08.014Z,39.40
2022-10-17T16:44:44.930Z,39.38
2022-10-17T16:47:20.954Z,39.90
2022-10-17T16:49:53.901Z,40.60
2022-10-17T16:52:24.920Z,39.92
2022-10-17T16:54:53.352Z,40.21
2022-10-17T16:57:24.191Z,40.72
2022-10-17T16:59:53.282Z,41.10
2022-10-17T17:02:26.864Z,41.35
2022-10-17T17:04:55.059Z,41.70
2022-10-17T17:07:25.276Z,40.90
2022-10-17T17:09:53.771Z,40.00
2022-10-17T17:12:21.857Z,40.37
2022-10-17T17:14:50.088Z,42.72
2022-10-17T17:17:30.320Z,42.31
2022-10-17T17:20:07.194Z,43.55
2022-10-17T17:22:36.856Z,43.88
2022-10-17T17:25:05.318Z,43.00
2022-10-17T17:27:34.463Z,41.75
2022-10-17T17:30:03.280Z,41.98
2022-10-17T17:32:31.690Z,41.83
2022-10-17T17:35:00.646Z,40.69
2022-10-17T17:37:31.533Z,41.09
2022-10-17T17:40:03.710Z,41.70
2022-10-17T17:42:31.991Z,41.20
2022-10-17T17:44:59.865Z,40.85
2022-10-17T17:47:30.131Z,41.53
2022-10-17T17:49:58.565Z,41.24
2022-10-17T17:52:27.243Z,41.52
2022-10-17T17:54:55.498Z,41.11
2022-10-17T17:57:25.637Z,40.89
2022-10-17T17:59:58.066Z,41.13
2022-10-17T18:02:27.100Z,40.62
2022-10-17T18:04:55.207Z,40.95
2022-10-17T18:07:24.077Z,41.93
2022-10-17T18:09:56.442Z,42.85
2022-10-17T18:12:33.654Z,43.28
2022-10-17T18:15:04.643Z,43.91
2022-10-17T18:17:34.034Z,43.11
2022-10-17T18:20:04.766Z,42.50
2022-10-17T18:22:33.296Z,43.72
2022-10-17T18:25:04.055Z,42.13
2022-10-17T18:27:35.787Z,41.43
2022-10-17T18:30:09.182Z,40.91
2022-10-17T18:32:37.179Z,41.30
2022-10-17T18:35:09.582Z,40.83
2022-10-17T18:40:17.295Z,41.13
2022-10-17T18:42:50.813Z,40.75
2022-10-17T18:45:19.352Z,41.53
2022-10-17T18:47:52.797Z,43.27
2022-10-17T18:50:21.894Z,42.90
2022-10-17T18:52:51.507Z,41.98
2022-10-17T18:55:20.842Z,44.92
2022-10-17T18:57:51.612Z,44.11
2022-10-17T19:00:22.069Z,43.80
2022-10-17T19:02:51.001Z,42.92
2022-10-17T19:05:19.549Z,41.89
2022-10-17T19:07:48.108Z,42.69
2022-10-17T19:10:28.621Z,42.46
2022-10-17T19:13:01.271Z,41.38
2022-10-17T19:15:32.882Z,40.64
2022-10-17T19:18:04.028Z,40.92
2022-10-17T19:20:38.908Z,42.07
2022-10-17T19:23:10.231Z,41.89
2022-10-17T19:25:41.017Z,41.96
2022-10-17T19:31:18.064Z,41.96
2022-10-17T19:33:47.939Z,41.96
2022-10-17T19:36:17.605Z,43.03
2022-10-17T19:38:47.780Z,43.17
2022-10-17T19:41:17.459Z,44.14
2022-10-17T19:43:47.587Z,44.40
2022-10-17T19:46:34.705Z,44.65
2022-10-17T19:49:12.295Z,43.66
2022-10-17T19:51:41.246Z,45.07
2022-10-17T19:54:10.037Z,44.58
2022-10-17T19:56:40.400Z,45.18
2022-10-17T19:59:11.638Z,43.93
2022-10-17T20:01:44.067Z,44.51
2022-10-17T20:04:13.703Z,43.90
2022-10-17T20:06:44.218Z,44.23
2022-10-17T20:09:16.591Z,44.79
2022-10-17T20:11:45.684Z,44.55
2022-10-17T20:14:31.289Z,45.11
2022-10-17T20:17:01.025Z,45.41
2022-10-17T20:19:29.505Z,46.74
2022-10-17T20:21:58.106Z,45.54
2022-10-17T20:24:32.382Z,46.39
2022-10-17T20:27:00.725Z,47.26
2022-10-17T20:29:31.571Z,47.34
2022-10-17T20:32:00.343Z,49.36
2022-10-17T20:34:30.685Z,48.73
2022-10-17T20:37:03.503Z,50.17
2022-10-17T20:39:31.721Z,47.83
2022-10-17T20:42:00.375Z,47.62
2022-10-17T20:44:31.070Z,47.21
2022-10-17T20:47:33.124Z,46.71
2022-10-17T20:53:36.959Z,47.33
2022-10-17T20:56:08.908Z,47.68
2022-10-17T20:58:39.586Z,46.82
2022-10-17T21:01:11.133Z,46.73
2022-10-17T21:03:45.464Z,46.21
2022-10-17T21:06:15.182Z,48.95
2022-10-17T21:08:44.206Z,47.82
2022-10-17T21:11:15.186Z,48.23
2022-10-17T21:13:43.748Z,48.73
2022-10-17T21:16:17.399Z,49.10
2022-10-17T21:18:45.913Z,48.68
2022-10-17T21:21:15.800Z,49.18
2022-10-17T21:23:48.934Z,47.73
2022-10-17T21:26:19.113Z,47.63
2022-10-17T21:28:50.132Z,48.68
2022-10-17T21:31:23.280Z,48.31
2022-10-17T21:33:53.427Z,49.08
2022-10-17T21:36:22.893Z,53.68
2022-10-17T21:38:53.096Z,55.23
2022-10-17T21:41:22.892Z,57.65
2022-10-17T21:43:55.585Z,54.73
2022-10-17T21:46:25.650Z,56.30
2022-10-17T21:49:27.351Z,57.91
2022-10-17T21:51:57.976Z,54.03
2022-10-17T21:54:30.852Z,52.46
2022-10-17T21:56:58.838Z,56.68
2022-10-17T21:59:27.282Z,53.02
2022-10-17T22:01:58.168Z,51.54
2022-10-17T22:04:28.605Z,50.74
2022-10-17T22:06:57.353Z,52.29
2022-10-17T22:09:27.087Z,52.19
2022-10-17T22:12:25.534Z,55.22
2022-10-17T22:14:55.822Z,51.49
2022-10-17T22:17:25.857Z,53.58
2022-10-17T22:19:53.916Z,59.65
2022-10-17T22:22:22.444Z,57.05
2022-10-17T22:24:57.170Z,52.93
2022-10-17T22:27:26.367Z,58.05
2022-10-17T22:29:54.537Z,53.31
2022-10-17T22:32:22.798Z,59.13
2022-10-17T22:34:53.506Z,60.61
2022-10-17T22:37:21.877Z,60.02
2022-10-17T22:39:53.211Z,64.14
2022-10-17T22:44:50.115Z,64.00
2022-10-17T22:47:20.647Z,61.11
2022-10-17T22:49:48.827Z,58.46
2022-10-17T22:52:18.768Z,57.31
2022-10-17T22:54:47.362Z,59.31
2022-10-17T22:57:15.383Z,58.81
2022-10-17T22:59:43.529Z,56.88
2022-10-17T23:02:11.795Z,58.87
2022-10-17T23:04:41.374Z,55.86
2022-10-17T23:07:14.111Z,56.82
2022-10-17T23:09:43.748Z,56.91
2022-10-17T23:12:11.720Z,56.15
2022-10-17T23:14:43.165Z,58.14
2022-10-17T23:17:11.778Z,57.18
2022-10-17T23:19:40.389Z,57.62
2022-10-17T23:22:09.184Z,57.87
2022-10-17T23:24:37.409Z,62.34
2022-10-17T23:27:07.659Z,59.86
2022-10-17T23:29:36.110Z,60.35
2022-10-17T23:32:05.489Z,62.34
2022-10-17T23:34:33.634Z,58.69
2022-10-17T23:37:01.947Z,61.24
2022-10-17T23:39:29.977Z,61.16
2022-10-17T23:41:58.133Z,61.47
2022-10-17T23:44:27.948Z,68.96
2022-10-17T23:46:56.161Z,60.59
2022-10-17T23:49:24.198Z,59.22
2022-10-17T23:51:52.027Z,53.64
2022-10-17T23:54:19.879Z,53.77
2022-10-17T23:56:48.117Z,56.51
2022-10-17T23:59:16.025Z,55.18
